Aeroporto :
LOGIN :

Iscrizione | Disclaimer

   EN    FR    IT 

 










Sommario :    VFR   VFR Marginale   IFR   IFR Intensivo   IFR Molto Intensivo
Visibilità : 
Base nubi : 
>= 8 km
>= 3000ft
5 / 8 km
1000 / 3000 ft
1500m / 5 km
500 / 1000 ft
800 / 1500m
200 / 500 ft
< 800m
< 200 ft
Simboli :   Temporali  Nebbia  Neve Forte  Precipitazioni Forti  Vento > 20 kt
SIGMETs :   Varie  Temporali  Ghiacco  Turbolenza  Onda orograficha  Ceneri Vulcaniche






- Altitudine del aeroporto : 238 ft
- Codice IATA : UAB


LTAG - Incirlik AB

ULTIMO METAR :
  • 050220Z 02004KT 9999 FEW025 13/13 Q1016 NOSIG

METARs OBSOLETI :
  • 050150Z 02005KT 9999 FEW025 13/13 Q1015 NOSIG
  • 050120Z 02004KT 9999 FEW025 14/14 Q1015 NOSIG
  • 050050Z 02006KT 9999 FEW025 14/14 Q1015 NOSIG
  • 050020Z 03005KT 9999 FEW025 15/15 Q1015 NOSIG
  • 042350Z 03005KT 9999 FEW025 15/15 Q1015 NOSIG

TAF TAF LTAG
Valido dal 05 a 00 ore il 06 a 00 ore UTC


042240Z 0500/0524 VRB02KT 9999 SCT020
BECMG 0506/0508 CAVOK
BECMG 0508/0510 18012KT
BECMG 0516/0518 VRB02KT



MetMap, La meteo Aeronautica in un colpo d'occhio ! - Copyright ORBIFLY Dicembre 2007 - Disclaimer

ORBIFLY MET'MAP TEAM :

Programmazione e sviluppo : Alexandra Zaïnal
Concezione : Baudouin d'Aumeries
Aiuto per la programmazione : Marc-Olivier Méhu
Supporto tecnico e logistico : Manuel Goepfert
Aiuto per la traduzione : Arnaldo La Scala

Contatto : metmap@orbifly.com




FONTI E CREDITI :

   NOAA